createdAt,value
2023-05-12T00:01:24.369Z,49.47
2023-05-12T00:03:54.092Z,49.68
2023-05-12T00:06:22.263Z,49.58
2023-05-12T00:08:50.785Z,49.60
2023-05-12T00:11:18.777Z,49.63
2023-05-12T00:13:47.008Z,49.80
2023-05-12T00:16:17.739Z,50.00
2023-05-12T00:18:45.983Z,49.79
2023-05-12T00:21:13.755Z,49.83
2023-05-12T00:23:41.668Z,50.10
2023-05-12T00:26:09.476Z,50.30
2023-05-12T00:28:37.229Z,50.29
2023-05-12T00:31:05.962Z,50.20
2023-05-12T00:33:34.325Z,50.14
2023-05-12T00:36:03.709Z,50.33
2023-05-12T00:38:31.648Z,50.54
2023-05-12T00:40:59.376Z,50.53
2023-05-12T00:43:27.226Z,50.57
2023-05-12T00:45:55.590Z,50.61
2023-05-12T00:48:24.542Z,50.56
2023-05-12T00:50:52.425Z,50.68
2023-05-12T00:53:20.446Z,50.58
2023-05-12T00:55:48.275Z,51.00
2023-05-12T00:58:16.138Z,51.12
2023-05-12T01:00:44.146Z,50.99
2023-05-12T01:03:12.758Z,51.00
2023-05-12T01:06:00.458Z,51.05
2023-05-12T01:08:29.634Z,51.13
2023-05-12T01:10:57.335Z,51.34
2023-05-12T01:13:27.257Z,51.43
2023-05-12T01:15:58.631Z,51.07
2023-05-12T01:18:27.911Z,51.41
2023-05-12T01:20:57.035Z,51.50
2023-05-12T01:23:31.825Z,51.53
2023-05-12T01:26:06.918Z,51.52
2023-05-12T01:28:36.522Z,51.61
2023-05-12T01:31:06.720Z,51.48
2023-05-12T01:33:35.856Z,51.59
2023-05-12T01:36:04.281Z,51.76
2023-05-12T01:38:32.555Z,51.64
2023-05-12T01:41:00.386Z,51.73
2023-05-12T01:43:28.354Z,51.54
2023-05-12T01:45:56.153Z,51.71
2023-05-12T01:48:24.019Z,52.05
2023-05-12T01:50:52.423Z,52.04
2023-05-12T01:53:20.891Z,52.06
2023-05-12T01:55:48.705Z,52.22
2023-05-12T01:58:16.539Z,52.18
2023-05-12T02:00:44.345Z,52.46
2023-05-12T02:03:12.310Z,52.56
2023-05-12T02:05:40.761Z,52.42
2023-05-12T02:08:09.467Z,52.48
2023-05-12T02:10:37.401Z,52.54
2023-05-12T02:13:05.305Z,52.42
2023-05-12T02:15:33.049Z,52.69
2023-05-12T02:18:01.600Z,52.80
2023-05-12T02:20:30.069Z,52.63
2023-05-12T02:22:57.878Z,52.89
2023-05-12T02:25:26.030Z,53.04
2023-05-12T02:27:53.795Z,53.05
2023-05-12T02:30:21.835Z,52.96
2023-05-12T02:32:50.767Z,52.97
2023-05-12T02:35:19.195Z,53.07
2023-05-12T02:37:47.008Z,53.06
2023-05-12T02:40:14.911Z,53.17
2023-05-12T02:42:43.696Z,53.17
2023-05-12T02:45:12.099Z,53.14
2023-05-12T02:47:40.712Z,53.12
2023-05-12T02:50:09.716Z,53.28
2023-05-12T02:52:37.501Z,53.38
2023-05-12T02:55:05.474Z,53.34
2023-05-12T02:57:34.377Z,53.57
2023-05-12T03:00:06.441Z,53.51
2023-05-12T03:02:36.624Z,53.39
2023-05-12T03:05:06.050Z,53.59
2023-05-12T03:07:33.781Z,53.65
2023-05-12T03:10:04.378Z,53.62
2023-05-12T03:12:32.503Z,53.73
2023-05-12T03:15:00.862Z,53.63
2023-05-12T03:17:29.166Z,53.68
2023-05-12T03:19:57.006Z,53.60
2023-05-12T03:22:24.925Z,53.73
2023-05-12T03:24:53.083Z,53.88
2023-05-12T03:27:21.048Z,53.80
2023-05-12T03:29:49.760Z,54.11
2023-05-12T03:32:18.338Z,53.87
2023-05-12T03:34:48.994Z,54.19
2023-05-12T03:37:17.199Z,54.22
2023-05-12T03:39:44.971Z,54.39
2023-05-12T03:42:14.080Z,54.20
2023-05-12T03:44:42.848Z,54.23
2023-05-12T03:47:11.463Z,54.52
2023-05-12T03:49:39.350Z,54.39
2023-05-12T03:52:07.510Z,54.57
2023-05-12T03:54:37.209Z,54.45
2023-05-12T03:57:06.745Z,54.68
2023-05-12T03:59:34.476Z,54.65
2023-05-12T04:02:02.883Z,54.78
2023-05-12T04:04:30.852Z,54.73
2023-05-12T04:06:59.831Z,54.89
2023-05-12T04:09:28.045Z,54.80
2023-05-12T04:11:55.880Z,54.92
2023-05-12T04:14:31.817Z,55.04
2023-05-12T04:17:07.954Z,55.13
2023-05-12T04:19:35.963Z,55.16
2023-05-12T04:22:03.902Z,55.14
2023-05-12T04:24:31.647Z,55.34
2023-05-12T04:27:08.998Z,55.30
2023-05-12T04:29:37.247Z,55.57
2023-05-12T04:32:05.759Z,55.61
2023-05-12T04:34:34.432Z,55.67
2023-05-12T04:37:02.230Z,55.68
2023-05-12T04:39:30.658Z,55.47
2023-05-12T04:42:06.022Z,55.70
2023-05-12T04:44:33.887Z,55.78
2023-05-12T04:47:09.530Z,56.04
2023-05-12T04:49:37.871Z,56.08
2023-05-12T04:52:06.042Z,55.99
2023-05-12T04:54:33.796Z,56.14
2023-05-12T04:57:01.589Z,56.00
2023-05-12T04:59:29.698Z,56.07
2023-05-12T05:01:58.283Z,56.06
2023-05-12T05:04:26.263Z,56.08
2023-05-12T05:06:55.771Z,56.14
2023-05-12T05:09:23.658Z,56.18
2023-05-12T05:11:51.442Z,56.21
2023-05-12T05:14:19.298Z,56.39
2023-05-12T05:16:50.837Z,56.36
2023-05-12T05:19:24.408Z,56.43
2023-05-12T05:21:57.937Z,56.33
2023-05-12T05:24:25.741Z,56.09
2023-05-12T05:27:01.224Z,56.10
2023-05-12T05:29:32.080Z,56.21
2023-05-12T05:31:59.864Z,56.15
2023-05-12T05:34:30.362Z,56.17
2023-05-12T05:36:58.186Z,56.10
2023-05-12T05:39:26.120Z,56.12
2023-05-12T05:41:54.019Z,56.24
2023-05-12T05:44:22.244Z,56.27
2023-05-12T05:46:50.095Z,56.27
2023-05-12T05:49:29.600Z,56.16
2023-05-12T05:51:57.342Z,56.28
2023-05-12T05:54:25.799Z,56.25
2023-05-12T05:56:53.565Z,56.26
2023-05-12T05:59:21.332Z,56.23
2023-05-12T06:01:49.393Z,56.30
2023-05-12T06:04:25.029Z,56.38
2023-05-12T06:06:53.606Z,56.52
2023-05-12T06:09:22.097Z,56.42
2023-05-12T06:11:50.549Z,56.54
2023-05-12T06:14:18.354Z,56.52
2023-05-12T06:16:46.567Z,56.53
2023-05-12T06:19:15.777Z,56.50
2023-05-12T06:21:47.187Z,56.62
2023-05-12T06:24:14.958Z,56.64
2023-05-12T06:26:42.945Z,56.66
2023-05-12T06:29:10.757Z,56.48
2023-05-12T06:31:40.882Z,56.53
2023-05-12T06:34:09.200Z,56.46
2023-05-12T06:36:37.518Z,56.42
2023-05-12T06:39:12.096Z,56.48
2023-05-12T06:41:40.342Z,56.50
2023-05-12T06:44:12.715Z,56.43
2023-05-12T06:46:41.495Z,56.50
2023-05-12T06:49:12.907Z,56.36
2023-05-12T06:51:40.828Z,56.42
2023-05-12T06:54:08.924Z,56.36
2023-05-12T06:56:38.912Z,56.38
2023-05-12T06:59:07.106Z,56.25
2023-05-12T07:01:35.544Z,56.44
2023-05-12T07:04:03.829Z,56.31
2023-05-12T07:06:32.477Z,56.31
2023-05-12T07:09:04.892Z,56.35
2023-05-12T07:11:33.251Z,56.23
2023-05-12T07:14:01.609Z,56.15
2023-05-12T07:16:29.478Z,55.69
2023-05-12T07:18:57.292Z,55.46
2023-05-12T07:21:34.834Z,55.53
2023-05-12T07:24:06.333Z,55.37
2023-05-12T07:26:34.743Z,55.50
2023-05-12T07:29:04.055Z,55.38
2023-05-12T07:31:32.291Z,55.23
2023-05-12T07:34:02.931Z,54.94
2023-05-12T07:36:34.462Z,55.08
2023-05-12T07:39:02.772Z,55.05
2023-05-12T07:41:31.993Z,54.89
2023-05-12T07:44:02.657Z,54.79
2023-05-12T07:46:30.517Z,54.99
2023-05-12T07:48:58.329Z,55.06
2023-05-12T07:51:26.659Z,54.78
2023-05-12T07:53:58.240Z,54.70
2023-05-12T07:56:26.130Z,54.58
2023-05-12T07:58:54.031Z,54.61
2023-05-12T08:01:24.832Z,54.55
2023-05-12T08:03:52.797Z,54.15
2023-05-12T08:06:21.508Z,54.35
2023-05-12T08:08:49.955Z,54.35
2023-05-12T08:11:17.826Z,54.19
2023-05-12T08:13:45.756Z,53.83
2023-05-12T08:16:13.575Z,53.86
2023-05-12T08:18:41.493Z,53.95
2023-05-12T08:21:10.447Z,53.96
2023-05-12T08:23:38.902Z,53.79
2023-05-12T08:26:09.835Z,53.75
2023-05-12T08:28:37.759Z,53.53
2023-05-12T08:31:05.745Z,53.51
2023-05-12T08:33:36.884Z,53.36
2023-05-12T08:36:04.960Z,53.32
2023-05-12T08:38:33.623Z,53.26
2023-05-12T08:41:13.763Z,52.58
2023-05-12T08:43:44.587Z,52.57
2023-05-12T08:46:13.242Z,52.78
2023-05-12T08:48:41.972Z,52.75
2023-05-12T08:51:12.005Z,52.77
2023-05-12T08:53:42.014Z,52.73
2023-05-12T08:58:45.870Z,52.23
2023-05-12T09:01:16.232Z,51.95
2023-05-12T09:03:45.072Z,51.91
2023-05-12T09:06:13.467Z,51.00
2023-05-12T09:08:44.055Z,51.21
2023-05-12T09:11:13.650Z,51.59
2023-05-12T09:14:01.108Z,51.10
2023-05-12T09:16:35.910Z,50.44
2023-05-12T09:19:07.161Z,50.47
2023-05-12T09:21:35.397Z,50.15
2023-05-12T09:24:06.782Z,49.82
2023-05-12T09:26:54.493Z,50.14
2023-05-12T09:29:31.215Z,50.03
2023-05-12T09:32:03.539Z,50.00
2023-05-12T09:34:35.630Z,50.08
2023-05-12T09:37:06.749Z,50.10
2023-05-12T09:39:36.524Z,50.18
2023-05-12T09:42:12.469Z,49.97
2023-05-12T09:44:41.384Z,49.41
2023-05-12T09:47:10.687Z,49.15
2023-05-12T09:49:39.241Z,49.27
2023-05-12T09:52:07.072Z,48.08
2023-05-12T09:54:35.006Z,48.64
2023-05-12T09:57:07.665Z,48.46
2023-05-12T09:59:38.665Z,48.56
2023-05-12T10:02:09.727Z,48.11
2023-05-12T10:04:48.128Z,47.63
2023-05-12T10:07:17.410Z,47.93
2023-05-12T10:09:48.519Z,47.84
2023-05-12T10:12:17.167Z,47.59
2023-05-12T10:14:45.915Z,47.44
2023-05-12T10:17:15.727Z,47.54
2023-05-12T10:19:44.593Z,47.07
2023-05-12T10:22:16.213Z,46.66
2023-05-12T10:24:45.914Z,46.45
2023-05-12T10:27:17.553Z,46.08
2023-05-12T10:29:47.008Z,46.07
2023-05-12T10:32:17.963Z,45.29
2023-05-12T10:34:46.030Z,44.83
2023-05-12T10:37:13.902Z,45.47
2023-05-12T10:39:50.681Z,44.80
2023-05-12T10:42:27.050Z,45.15
2023-05-12T10:44:56.437Z,45.02
2023-05-12T10:47:37.399Z,45.14
2023-05-12T10:50:06.537Z,44.98
2023-05-12T10:52:34.825Z,45.15
2023-05-12T10:55:04.543Z,44.38
2023-05-12T10:57:33.754Z,44.44
2023-05-12T11:00:04.080Z,44.06
2023-05-12T11:02:36.313Z,44.16
2023-05-12T11:05:14.050Z,43.95
2023-05-12T11:07:50.190Z,43.73
2023-05-12T11:10:19.496Z,43.60
2023-05-12T11:12:47.963Z,43.10
2023-05-12T11:15:18.116Z,43.41
2023-05-12T11:17:46.744Z,43.37
2023-05-12T11:20:33.336Z,43.14
2023-05-12T11:23:01.070Z,43.22
2023-05-12T11:25:28.937Z,42.79
2023-05-12T11:27:57.202Z,42.56
2023-05-12T11:30:24.992Z,42.71
2023-05-12T11:33:03.681Z,42.48
2023-05-12T11:35:32.633Z,42.32
2023-05-12T11:38:02.979Z,42.27
2023-05-12T11:40:31.932Z,42.18
2023-05-12T11:43:10.153Z,41.38
2023-05-12T11:45:38.797Z,41.59
2023-05-12T11:48:12.112Z,41.80
2023-05-12T11:50:42.304Z,41.37
2023-05-12T11:53:13.657Z,41.69
2023-05-12T11:55:55.841Z,41.67
2023-05-12T11:58:26.820Z,41.56
2023-05-12T12:00:57.360Z,41.44
2023-05-12T12:03:25.323Z,41.09
2023-05-12T12:06:01.929Z,41.28
2023-05-12T12:08:31.892Z,40.82
2023-05-12T12:11:02.800Z,40.51
2023-05-12T12:13:31.668Z,40.57
2023-05-12T12:15:59.480Z,40.73
2023-05-12T12:18:27.467Z,40.62
2023-05-12T12:20:55.393Z,40.79
2023-05-12T12:23:23.574Z,40.36
2023-05-12T12:25:52.083Z,39.85
2023-05-12T12:28:20.633Z,40.04
2023-05-12T12:30:48.674Z,39.93
2023-05-12T12:33:18.724Z,39.48
2023-05-12T12:35:48.147Z,40.02
2023-05-12T12:38:16.950Z,40.00
2023-05-12T12:40:47.887Z,39.89
2023-05-12T12:43:15.654Z,40.08
2023-05-12T12:45:43.346Z,40.04
2023-05-12T12:48:11.096Z,40.32
2023-05-12T12:50:39.642Z,39.72
2023-05-12T12:53:07.948Z,39.68
2023-05-12T12:55:36.023Z,39.88
2023-05-12T12:58:03.830Z,39.71
2023-05-12T13:00:31.573Z,39.65
2023-05-12T13:02:59.567Z,39.35
2023-05-12T13:05:27.870Z,39.42
2023-05-12T13:07:56.554Z,39.56
2023-05-12T13:10:25.446Z,39.49
2023-05-12T13:12:53.732Z,39.44
2023-05-12T13:15:22.013Z,39.55
2023-05-12T13:17:50.661Z,39.54
2023-05-12T13:20:19.455Z,39.33
2023-05-12T13:22:47.854Z,39.50
2023-05-12T13:25:18.892Z,38.96
2023-05-12T13:27:46.973Z,39.23
2023-05-12T13:30:15.481Z,39.18
2023-05-12T13:32:43.820Z,39.14
2023-05-12T13:35:17.409Z,39.57
2023-05-12T13:38:12.710Z,39.30
2023-05-12T13:40:41.643Z,39.11
2023-05-12T13:43:10.018Z,39.05
2023-05-12T13:45:38.331Z,38.73
2023-05-12T13:48:06.595Z,38.57
2023-05-12T13:50:34.528Z,38.79
2023-05-12T13:53:02.431Z,39.12
2023-05-12T13:55:40.820Z,38.94
2023-05-12T13:58:09.333Z,39.00
2023-05-12T14:00:40.513Z,38.76
2023-05-12T14:03:08.410Z,38.62
2023-05-12T14:05:36.505Z,38.79
2023-05-12T14:08:04.630Z,38.31
2023-05-12T14:10:35.389Z,38.35
2023-05-12T14:13:03.842Z,38.20
2023-05-12T14:15:44.672Z,38.00
2023-05-12T14:18:16.900Z,38.32
2023-05-12T14:20:45.363Z,37.95
2023-05-12T14:23:14.337Z,38.21
2023-05-12T14:25:42.743Z,38.40
2023-05-12T14:28:10.704Z,38.19
2023-05-12T14:30:38.838Z,37.78
2023-05-12T14:33:06.734Z,37.63
2023-05-12T14:35:35.115Z,37.51
2023-05-12T14:38:03.402Z,37.88
2023-05-12T14:40:31.201Z,37.81
2023-05-12T14:43:00.191Z,37.77
2023-05-12T14:45:28.439Z,37.50
2023-05-12T14:47:56.976Z,37.86
2023-05-12T14:50:25.464Z,37.79
2023-05-12T14:52:53.216Z,37.84
2023-05-12T14:55:21.411Z,37.81
2023-05-12T14:57:49.743Z,37.57
2023-05-12T15:00:19.101Z,37.45
2023-05-12T15:02:47.910Z,37.24
2023-05-12T15:05:16.319Z,37.15
2023-05-12T15:07:44.155Z,37.48
2023-05-12T15:10:22.881Z,37.31
2023-05-12T15:12:51.306Z,37.17
2023-05-12T15:15:19.832Z,36.96
2023-05-12T15:17:47.982Z,36.99
2023-05-12T15:20:15.888Z,37.09
2023-05-12T15:22:43.811Z,37.39
2023-05-12T15:25:11.747Z,37.40
2023-05-12T15:27:39.913Z,37.43
2023-05-12T15:30:09.020Z,37.47
2023-05-12T15:32:39.651Z,37.36
2023-05-12T15:35:08.696Z,37.39
2023-05-12T15:37:36.953Z,37.48
2023-05-12T15:40:05.460Z,37.28
2023-05-12T15:42:33.807Z,37.32
2023-05-12T15:45:02.312Z,37.30
2023-05-12T15:47:30.614Z,37.48
2023-05-12T15:49:58.521Z,37.42
2023-05-12T15:52:27.997Z,37.45
2023-05-12T15:54:56.118Z,37.19
2023-05-12T15:57:27.751Z,37.37
2023-05-12T15:59:59.945Z,37.29
2023-05-12T16:02:28.256Z,36.94
2023-05-12T16:04:56.166Z,37.13
2023-05-12T16:07:29.457Z,37.24
2023-05-12T16:09:58.556Z,37.33
2023-05-12T16:12:29.139Z,37.29
2023-05-12T16:14:57.018Z,37.28
2023-05-12T16:17:24.848Z,37.41
2023-05-12T16:19:53.742Z,37.42
2023-05-12T16:22:22.159Z,37.43
2023-05-12T16:24:50.676Z,37.23
2023-05-12T16:27:18.452Z,37.30
2023-05-12T16:29:48.188Z,37.17
2023-05-12T16:32:17.245Z,37.32
2023-05-12T16:34:45.796Z,37.35
2023-05-12T16:37:14.063Z,37.22
2023-05-12T16:39:42.773Z,37.19
2023-05-12T16:42:10.616Z,37.41
2023-05-12T16:44:38.555Z,37.47
2023-05-12T16:47:07.138Z,37.45
2023-05-12T16:49:35.317Z,37.10
2023-05-12T16:52:03.297Z,37.28
2023-05-12T16:54:32.856Z,37.10
2023-05-12T16:57:02.239Z,37.15
2023-05-12T16:59:32.543Z,37.18
2023-05-12T17:02:01.406Z,37.27
2023-05-12T17:04:29.803Z,37.15
2023-05-12T17:06:58.133Z,37.16
2023-05-12T17:09:25.882Z,37.14
2023-05-12T17:11:53.705Z,37.14
2023-05-12T17:14:21.946Z,37.01
2023-05-12T17:16:50.398Z,37.16
2023-05-12T17:19:18.754Z,37.11
2023-05-12T17:21:46.648Z,37.16
2023-05-12T17:24:14.485Z,37.27
2023-05-12T17:26:42.319Z,37.22
2023-05-12T17:29:10.076Z,37.22
2023-05-12T17:31:39.348Z,37.31
2023-05-12T17:34:07.346Z,37.18
2023-05-12T17:36:35.587Z,37.27
2023-05-12T17:39:03.854Z,37.33
2023-05-12T17:41:31.672Z,37.39
2023-05-12T17:43:59.926Z,37.29
2023-05-12T17:46:28.259Z,37.26
2023-05-12T17:48:56.189Z,37.41
2023-05-12T17:51:24.023Z,37.43
2023-05-12T17:53:51.792Z,37.45
2023-05-12T17:56:20.178Z,37.46
2023-05-12T17:58:48.198Z,37.49
2023-05-12T18:01:16.503Z,37.46
2023-05-12T18:03:44.399Z,37.49
2023-05-12T18:06:12.977Z,37.46
2023-05-12T18:08:41.450Z,37.59
2023-05-12T18:11:09.226Z,37.62
2023-05-12T18:13:37.091Z,37.64
2023-05-12T18:16:07.416Z,37.70
2023-05-12T18:18:37.016Z,37.73
2023-05-12T18:21:05.040Z,37.84
2023-05-12T18:23:33.357Z,37.90
2023-05-12T18:26:01.268Z,37.95
2023-05-12T18:28:29.218Z,37.96
2023-05-12T18:31:06.063Z,38.03
2023-05-12T18:33:47.579Z,38.13
2023-05-12T18:36:16.893Z,38.18
2023-05-12T18:38:48.071Z,38.29
2023-05-12T18:41:16.786Z,38.27
2023-05-12T18:43:44.880Z,38.30
2023-05-12T18:46:15.870Z,38.37
2023-05-12T18:48:43.695Z,38.59
2023-05-12T18:51:11.679Z,38.55
2023-05-12T18:53:39.537Z,38.62
2023-05-12T18:56:07.523Z,38.74
2023-05-12T18:58:36.314Z,38.79
2023-05-12T19:01:05.295Z,38.79
2023-05-12T19:03:37.478Z,38.87
2023-05-12T19:06:05.312Z,39.01
2023-05-12T19:08:36.502Z,39.02
2023-05-12T19:11:04.351Z,39.15
2023-05-12T19:13:32.745Z,39.26
2023-05-12T19:16:00.783Z,39.46
2023-05-12T19:18:28.603Z,39.56
2023-05-12T19:20:57.037Z,39.54
2023-05-12T19:23:24.908Z,39.67
2023-05-12T19:25:52.709Z,39.69
2023-05-12T19:28:20.927Z,39.76
2023-05-12T19:30:48.752Z,39.90
2023-05-12T19:33:24.742Z,39.92
2023-05-12T19:35:58.412Z,40.09
2023-05-12T19:38:26.815Z,40.19
2023-05-12T19:40:55.748Z,40.23
2023-05-12T19:43:23.616Z,40.41
2023-05-12T19:45:51.525Z,40.36
2023-05-12T19:48:20.181Z,40.50
2023-05-12T19:50:47.989Z,40.71
2023-05-12T19:53:19.071Z,40.64
2023-05-12T19:55:46.919Z,40.75
2023-05-12T19:58:14.683Z,40.89
2023-05-12T20:00:54.492Z,40.94
2023-05-12T20:03:23.231Z,41.15
2023-05-12T20:05:51.264Z,41.23
2023-05-12T20:08:19.164Z,41.31
2023-05-12T20:10:47.131Z,41.38
2023-05-12T20:13:14.978Z,41.51
2023-05-12T20:15:46.349Z,41.57
2023-05-12T20:18:15.804Z,41.71
2023-05-12T20:20:49.083Z,41.75
2023-05-12T20:23:16.961Z,41.92
2023-05-12T20:25:44.777Z,41.99
2023-05-12T20:28:13.299Z,41.99
2023-05-12T20:30:41.908Z,42.13
2023-05-12T20:33:09.713Z,42.27
2023-05-12T20:35:37.548Z,42.37
2023-05-12T20:38:10.120Z,42.53
2023-05-12T20:40:43.052Z,42.58
2023-05-12T20:43:13.565Z,42.65
2023-05-12T20:45:49.727Z,42.70
2023-05-12T20:48:25.400Z,42.84
2023-05-12T20:50:55.707Z,42.92
2023-05-12T20:53:29.089Z,43.03
2023-05-12T20:55:57.099Z,42.98
2023-05-12T20:58:30.220Z,43.10
2023-05-12T21:00:59.088Z,43.29
2023-05-12T21:03:30.382Z,43.28
2023-05-12T21:06:01.414Z,43.62
2023-05-12T21:08:29.328Z,43.47
2023-05-12T21:11:00.178Z,43.54
2023-05-12T21:13:32.599Z,43.59
2023-05-12T21:16:01.022Z,43.75
2023-05-12T21:18:29.257Z,43.89
2023-05-12T21:20:57.015Z,43.82
2023-05-12T21:23:24.873Z,43.91
2023-05-12T21:25:53.539Z,43.89
2023-05-12T21:28:21.502Z,43.73
2023-05-12T21:30:53.167Z,43.71
2023-05-12T21:33:21.017Z,43.50
2023-05-12T21:35:50.061Z,44.28
2023-05-12T21:38:17.938Z,44.40
2023-05-12T21:40:50.415Z,44.53
2023-05-12T21:43:19.152Z,44.79
2023-05-12T21:45:47.077Z,44.75
2023-05-12T21:48:15.481Z,44.79
2023-05-12T21:50:43.239Z,44.91
2023-05-12T21:53:11.004Z,44.97
2023-05-12T21:55:41.805Z,45.02
2023-05-12T21:58:10.461Z,45.08
2023-05-12T22:00:38.654Z,45.10
2023-05-12T22:03:08.702Z,45.15
2023-05-12T22:05:36.655Z,45.34
2023-05-12T22:08:04.716Z,45.25
2023-05-12T22:10:32.473Z,45.35
2023-05-12T22:13:00.236Z,45.62
2023-05-12T22:15:28.021Z,45.51
2023-05-12T22:17:55.971Z,45.60
2023-05-12T22:20:24.340Z,45.92
2023-05-12T22:22:52.188Z,46.09
2023-05-12T22:25:20.279Z,45.94
2023-05-12T22:27:48.113Z,45.88
2023-05-12T22:30:16.619Z,45.95
2023-05-12T22:32:45.114Z,45.47
2023-05-12T22:35:13.172Z,45.97
2023-05-12T22:37:41.136Z,46.05
2023-05-12T22:40:09.812Z,46.35
2023-05-12T22:42:37.573Z,46.52
2023-05-12T22:45:06.189Z,46.46
2023-05-12T22:47:34.134Z,46.47
2023-05-12T22:50:02.028Z,46.89
2023-05-12T22:52:29.926Z,46.80
2023-05-12T22:54:57.779Z,46.94
2023-05-12T22:57:25.942Z,46.98
2023-05-12T22:59:53.924Z,47.00
2023-05-12T23:02:21.963Z,47.11
2023-05-12T23:04:49.829Z,47.22
2023-05-12T23:07:17.758Z,47.19
2023-05-12T23:09:45.860Z,47.19
2023-05-12T23:12:13.713Z,47.64
2023-05-12T23:14:41.638Z,47.32
2023-05-12T23:17:09.938Z,47.20
2023-05-12T23:19:37.954Z,47.27
2023-05-12T23:22:08.769Z,47.49
2023-05-12T23:24:36.716Z,47.57
2023-05-12T23:27:05.277Z,47.60
2023-05-12T23:29:34.674Z,47.96
2023-05-12T23:32:03.218Z,47.94
2023-05-12T23:34:31.078Z,47.95
2023-05-12T23:36:58.880Z,47.96
2023-05-12T23:39:26.908Z,47.89
2023-05-12T23:41:55.388Z,47.88
2023-05-12T23:44:23.716Z,48.38
2023-05-12T23:46:52.271Z,48.27
2023-05-12T23:49:20.371Z,48.37
2023-05-12T23:51:48.153Z,48.30
2023-05-12T23:54:15.966Z,48.38
2023-05-12T23:56:44.288Z,48.70
2023-05-12T23:59:12.462Z,48.73
